sensor_id;sensor_type;location;lat;lon;timestamp;P1;durP1;ratioP1;P2;durP2;ratioP2
58470;SDS011;44258;51.288;12.068;2023-04-06T00:01:54;16.48;;;8.40;;
58470;SDS011;44258;51.288;12.068;2023-04-06T00:04:21;15.65;;;8.52;;
58470;SDS011;44258;51.288;12.068;2023-04-06T00:06:47;18.83;;;9.07;;
58470;SDS011;44258;51.288;12.068;2023-04-06T00:09:16;17.50;;;8.80;;
58470;SDS011;44258;51.288;12.068;2023-04-06T00:11:42;16.25;;;8.63;;
58470;SDS011;44258;51.288;12.068;2023-04-06T00:14:12;16.50;;;8.75;;
58470;SDS011;44258;51.288;12.068;2023-04-06T00:16:38;17.38;;;8.35;;
58470;SDS011;44258;51.288;12.068;2023-04-06T00:19:09;16.20;;;8.50;;
58470;SDS011;44258;51.288;12.068;2023-04-06T00:21:35;16.08;;;8.63;;
58470;SDS011;44258;51.288;12.068;2023-04-06T00:24:02;16.67;;;8.70;;
58470;SDS011;44258;51.288;12.068;2023-04-06T00:26:32;16.77;;;8.50;;
58470;SDS011;44258;51.288;12.068;2023-04-06T00:29:02;15.85;;;8.30;;
58470;SDS011;44258;51.288;12.068;2023-04-06T00:31:29;19.00;;;8.77;;
58470;SDS011;44258;51.288;12.068;2023-04-06T00:33:56;17.08;;;8.35;;
58470;SDS011;44258;51.288;12.068;2023-04-06T00:36:23;20.60;;;9.43;;
58470;SDS011;44258;51.288;12.068;2023-04-06T00:38:53;17.08;;;8.63;;
58470;SDS011;44258;51.288;12.068;2023-04-06T00:41:24;19.05;;;9.52;;
58470;SDS011;44258;51.288;12.068;2023-04-06T00:43:54;16.90;;;8.40;;
58470;SDS011;44258;51.288;12.068;2023-04-06T00:46:21;14.70;;;7.88;;
58470;SDS011;44258;51.288;12.068;2023-04-06T00:48:50;15.65;;;8.70;;
58470;SDS011;44258;51.288;12.068;2023-04-06T00:51:17;17.42;;;9.18;;
58470;SDS011;44258;51.288;12.068;2023-04-06T00:53:47;17.23;;;8.15;;
58470;SDS011;44258;51.288;12.068;2023-04-06T00:56:14;15.82;;;7.90;;
58470;SDS011;44258;51.288;12.068;2023-04-06T00:58:41;16.83;;;9.20;;
58470;SDS011;44258;51.288;12.068;2023-04-06T01:01:09;18.27;;;8.55;;
58470;SDS011;44258;51.288;12.068;2023-04-06T01:03:36;14.82;;;8.68;;
58470;SDS011;44258;51.288;12.068;2023-04-06T01:06:03;15.20;;;8.68;;
58470;SDS011;44258;51.288;12.068;2023-04-06T01:08:30;16.65;;;8.13;;
58470;SDS011;44258;51.288;12.068;2023-04-06T01:10:58;18.23;;;8.57;;
58470;SDS011;44258;51.288;12.068;2023-04-06T01:13:32;17.60;;;8.80;;
58470;SDS011;44258;51.288;12.068;2023-04-06T01:16:02;20.38;;;8.85;;
58470;SDS011;44258;51.288;12.068;2023-04-06T01:18:33;17.73;;;8.40;;
58470;SDS011;44258;51.288;12.068;2023-04-06T01:21:00;15.93;;;8.10;;
58470;SDS011;44258;51.288;12.068;2023-04-06T01:23:28;15.30;;;8.50;;
58470;SDS011;44258;51.288;12.068;2023-04-06T01:25:58;16.33;;;8.30;;
58470;SDS011;44258;51.288;12.068;2023-04-06T01:28:27;16.63;;;8.15;;
58470;SDS011;44258;51.288;12.068;2023-04-06T01:30:54;16.85;;;9.38;;
58470;SDS011;44258;51.288;12.068;2023-04-06T01:33:22;20.70;;;9.95;;
58470;SDS011;44258;51.288;12.068;2023-04-06T01:35:49;18.25;;;9.18;;
58470;SDS011;44258;51.288;12.068;2023-04-06T01:38:15;18.83;;;8.02;;
58470;SDS011;44258;51.288;12.068;2023-04-06T01:40:46;16.90;;;7.70;;
58470;SDS011;44258;51.288;12.068;2023-04-06T01:43:15;17.50;;;9.07;;
58470;SDS011;44258;51.288;12.068;2023-04-06T01:45:45;15.30;;;7.93;;
58470;SDS011;44258;51.288;12.068;2023-04-06T01:48:14;14.18;;;7.85;;
58470;SDS011;44258;51.288;12.068;2023-04-06T01:50:40;16.98;;;8.88;;
58470;SDS011;44258;51.288;12.068;2023-04-06T01:53:07;15.15;;;8.52;;
58470;SDS011;44258;51.288;12.068;2023-04-06T01:55:36;14.98;;;8.50;;
58470;SDS011;44258;51.288;12.068;2023-04-06T01:58:04;19.27;;;8.90;;
58470;SDS011;44258;51.288;12.068;2023-04-06T02:00:31;17.50;;;8.63;;
58470;SDS011;44258;51.288;12.068;2023-04-06T02:03:01;18.92;;;8.75;;
58470;SDS011;44258;51.288;12.068;2023-04-06T02:05:33;16.25;;;8.65;;
58470;SDS011;44258;51.288;12.068;2023-04-06T02:08:04;17.27;;;8.60;;
58470;SDS011;44258;51.288;12.068;2023-04-06T02:10:31;18.90;;;8.88;;
58470;SDS011;44258;51.288;12.068;2023-04-06T02:13:01;17.55;;;8.35;;
58470;SDS011;44258;51.288;12.068;2023-04-06T02:15:29;16.10;;;8.65;;
58470;SDS011;44258;51.288;12.068;2023-04-06T02:17:57;15.82;;;8.65;;
58470;SDS011;44258;51.288;12.068;2023-04-06T02:20:25;16.50;;;9.32;;
58470;SDS011;44258;51.288;12.068;2023-04-06T02:22:52;16.63;;;9.52;;
58470;SDS011;44258;51.288;12.068;2023-04-06T02:25:21;19.70;;;10.50;;
58470;SDS011;44258;51.288;12.068;2023-04-06T02:27:51;18.67;;;9.40;;
58470;SDS011;44258;51.288;12.068;2023-04-06T02:30:23;20.15;;;9.63;;
58470;SDS011;44258;51.288;12.068;2023-04-06T02:32:51;16.30;;;9.05;;
58470;SDS011;44258;51.288;12.068;2023-04-06T02:35:17;17.95;;;9.05;;
58470;SDS011;44258;51.288;12.068;2023-04-06T02:37:44;17.05;;;8.90;;
58470;SDS011;44258;51.288;12.068;2023-04-06T02:40:18;17.85;;;8.45;;
58470;SDS011;44258;51.288;12.068;2023-04-06T02:42:45;16.88;;;9.23;;
58470;SDS011;44258;51.288;12.068;2023-04-06T02:45:11;15.40;;;8.43;;
58470;SDS011;44258;51.288;12.068;2023-04-06T02:47:42;17.80;;;9.23;;
58470;SDS011;44258;51.288;12.068;2023-04-06T02:50:10;17.65;;;9.27;;
58470;SDS011;44258;51.288;12.068;2023-04-06T02:52:36;17.45;;;9.05;;
58470;SDS011;44258;51.288;12.068;2023-04-06T02:55:03;18.08;;;10.00;;
58470;SDS011;44258;51.288;12.068;2023-04-06T02:57:32;17.90;;;9.23;;
58470;SDS011;44258;51.288;12.068;2023-04-06T03:00:05;20.17;;;9.45;;
58470;SDS011;44258;51.288;12.068;2023-04-06T03:02:32;18.08;;;9.23;;
58470;SDS011;44258;51.288;12.068;2023-04-06T03:05:03;18.25;;;9.13;;
58470;SDS011;44258;51.288;12.068;2023-04-06T03:07:34;16.70;;;9.13;;
58470;SDS011;44258;51.288;12.068;2023-04-06T03:10:06;18.05;;;9.30;;
58470;SDS011;44258;51.288;12.068;2023-04-06T03:12:34;17.38;;;8.68;;
58470;SDS011;44258;51.288;12.068;2023-04-06T03:15:01;16.85;;;9.65;;
58470;SDS011;44258;51.288;12.068;2023-04-06T03:17:28;19.13;;;9.63;;
58470;SDS011;44258;51.288;12.068;2023-04-06T03:20:00;18.83;;;9.75;;
58470;SDS011;44258;51.288;12.068;2023-04-06T03:22:26;16.05;;;9.00;;
58470;SDS011;44258;51.288;12.068;2023-04-06T03:24:54;18.92;;;9.57;;
58470;SDS011;44258;51.288;12.068;2023-04-06T03:27:21;17.90;;;9.25;;
58470;SDS011;44258;51.288;12.068;2023-04-06T03:29:55;16.67;;;8.50;;
58470;SDS011;44258;51.288;12.068;2023-04-06T03:32:25;17.55;;;9.65;;
58470;SDS011;44258;51.288;12.068;2023-04-06T03:34:51;16.20;;;8.77;;
58470;SDS011;44258;51.288;12.068;2023-04-06T03:37:18;18.10;;;9.43;;
58470;SDS011;44258;51.288;12.068;2023-04-06T03:39:45;17.30;;;9.55;;
58470;SDS011;44258;51.288;12.068;2023-04-06T03:42:14;16.45;;;9.15;;
58470;SDS011;44258;51.288;12.068;2023-04-06T03:44:40;17.65;;;9.15;;
58470;SDS011;44258;51.288;12.068;2023-04-06T03:47:13;16.83;;;8.93;;
58470;SDS011;44258;51.288;12.068;2023-04-06T03:49:40;18.35;;;9.27;;
58470;SDS011;44258;51.288;12.068;2023-04-06T03:52:06;18.15;;;9.45;;
58470;SDS011;44258;51.288;12.068;2023-04-06T03:54:33;18.10;;;8.88;;
58470;SDS011;44258;51.288;12.068;2023-04-06T03:57:03;16.05;;;8.50;;
58470;SDS011;44258;51.288;12.068;2023-04-06T03:59:31;19.65;;;9.65;;
58470;SDS011;44258;51.288;12.068;2023-04-06T04:01:58;19.98;;;9.05;;
58470;SDS011;44258;51.288;12.068;2023-04-06T04:04:30;17.38;;;8.93;;
58470;SDS011;44258;51.288;12.068;2023-04-06T04:07:00;22.35;;;9.65;;
58470;SDS011;44258;51.288;12.068;2023-04-06T04:09:29;22.55;;;10.02;;
58470;SDS011;44258;51.288;12.068;2023-04-06T04:11:56;16.55;;;8.88;;
58470;SDS011;44258;51.288;12.068;2023-04-06T04:14:22;19.30;;;9.50;;
58470;SDS011;44258;51.288;12.068;2023-04-06T04:16:50;19.15;;;8.70;;
58470;SDS011;44258;51.288;12.068;2023-04-06T04:19:17;20.05;;;9.30;;
58470;SDS011;44258;51.288;12.068;2023-04-06T04:21:46;18.45;;;9.32;;
58470;SDS011;44258;51.288;12.068;2023-04-06T04:24:18;19.65;;;9.63;;
58470;SDS011;44258;51.288;12.068;2023-04-06T04:26:47;18.45;;;9.80;;
58470;SDS011;44258;51.288;12.068;2023-04-06T04:29:16;18.90;;;9.35;;
58470;SDS011;44258;51.288;12.068;2023-04-06T04:31:46;21.15;;;9.48;;
58470;SDS011;44258;51.288;12.068;2023-04-06T04:34:17;18.23;;;8.75;;
58470;SDS011;44258;51.288;12.068;2023-04-06T04:36:49;18.35;;;8.63;;
58470;SDS011;44258;51.288;12.068;2023-04-06T04:39:15;21.35;;;9.20;;
58470;SDS011;44258;51.288;12.068;2023-04-06T04:41:42;20.80;;;8.70;;
58470;SDS011;44258;51.288;12.068;2023-04-06T04:44:13;18.70;;;9.52;;
58470;SDS011;44258;51.288;12.068;2023-04-06T04:46:43;22.15;;;9.32;;
58470;SDS011;44258;51.288;12.068;2023-04-06T04:49:09;20.80;;;9.15;;
58470;SDS011;44258;51.288;12.068;2023-04-06T04:51:37;19.90;;;9.82;;
58470;SDS011;44258;51.288;12.068;2023-04-06T04:54:04;20.63;;;9.10;;
58470;SDS011;44258;51.288;12.068;2023-04-06T04:56:31;20.30;;;9.75;;
58470;SDS011;44258;51.288;12.068;2023-04-06T04:58:57;18.40;;;9.02;;
58470;SDS011;44258;51.288;12.068;2023-04-06T05:01:24;20.88;;;9.05;;
58470;SDS011;44258;51.288;12.068;2023-04-06T05:03:50;21.15;;;9.50;;
58470;SDS011;44258;51.288;12.068;2023-04-06T05:06:17;25.00;;;10.10;;
58470;SDS011;44258;51.288;12.068;2023-04-06T05:08:48;19.58;;;9.43;;
58470;SDS011;44258;51.288;12.068;2023-04-06T05:11:15;19.35;;;9.55;;
58470;SDS011;44258;51.288;12.068;2023-04-06T05:13:43;20.60;;;10.02;;
58470;SDS011;44258;51.288;12.068;2023-04-06T05:16:19;21.75;;;10.40;;
58470;SDS011;44258;51.288;12.068;2023-04-06T05:18:46;20.55;;;9.57;;
58470;SDS011;44258;51.288;12.068;2023-04-06T05:21:14;22.35;;;11.05;;
58470;SDS011;44258;51.288;12.068;2023-04-06T05:23:40;18.45;;;9.35;;
58470;SDS011;44258;51.288;12.068;2023-04-06T05:26:08;19.25;;;9.75;;
58470;SDS011;44258;51.288;12.068;2023-04-06T05:28:35;18.55;;;9.18;;
58470;SDS011;44258;51.288;12.068;2023-04-06T05:31:01;21.70;;;10.60;;
58470;SDS011;44258;51.288;12.068;2023-04-06T05:33:32;17.10;;;9.13;;
58470;SDS011;44258;51.288;12.068;2023-04-06T05:35:59;19.55;;;9.73;;
58470;SDS011;44258;51.288;12.068;2023-04-06T05:38:26;21.88;;;9.30;;
58470;SDS011;44258;51.288;12.068;2023-04-06T05:40:53;15.85;;;8.73;;
58470;SDS011;44258;51.288;12.068;2023-04-06T05:43:21;19.45;;;9.32;;
58470;SDS011;44258;51.288;12.068;2023-04-06T05:45:47;20.77;;;9.45;;
58470;SDS011;44258;51.288;12.068;2023-04-06T05:48:14;20.33;;;10.13;;
58470;SDS011;44258;51.288;12.068;2023-04-06T05:50:41;20.52;;;9.50;;
58470;SDS011;44258;51.288;12.068;2023-04-06T05:53:07;21.05;;;11.45;;
58470;SDS011;44258;51.288;12.068;2023-04-06T05:55:34;21.67;;;11.43;;
58470;SDS011;44258;51.288;12.068;2023-04-06T05:58:00;21.10;;;11.15;;
58470;SDS011;44258;51.288;12.068;2023-04-06T06:00:29;23.42;;;12.20;;
58470;SDS011;44258;51.288;12.068;2023-04-06T06:02:56;24.40;;;10.68;;
58470;SDS011;44258;51.288;12.068;2023-04-06T06:05:23;19.45;;;9.95;;
58470;SDS011;44258;51.288;12.068;2023-04-06T06:07:53;19.98;;;9.20;;
58470;SDS011;44258;51.288;12.068;2023-04-06T06:10:20;18.20;;;9.38;;
58470;SDS011;44258;51.288;12.068;2023-04-06T06:12:46;16.38;;;9.30;;
58470;SDS011;44258;51.288;12.068;2023-04-06T06:15:15;17.23;;;8.73;;
58470;SDS011;44258;51.288;12.068;2023-04-06T06:17:47;17.17;;;9.55;;
58470;SDS011;44258;51.288;12.068;2023-04-06T06:20:13;17.25;;;9.65;;
58470;SDS011;44258;51.288;12.068;2023-04-06T06:22:43;21.23;;;9.45;;
58470;SDS011;44258;51.288;12.068;2023-04-06T06:25:10;18.85;;;9.23;;
58470;SDS011;44258;51.288;12.068;2023-04-06T06:27:36;17.80;;;8.70;;
58470;SDS011;44258;51.288;12.068;2023-04-06T06:30:03;15.77;;;8.52;;
58470;SDS011;44258;51.288;12.068;2023-04-06T06:32:34;17.73;;;9.13;;
58470;SDS011;44258;51.288;12.068;2023-04-06T06:35:07;20.15;;;10.27;;
58470;SDS011;44258;51.288;12.068;2023-04-06T06:37:37;18.60;;;9.60;;
58470;SDS011;44258;51.288;12.068;2023-04-06T06:40:04;18.13;;;9.77;;
58470;SDS011;44258;51.288;12.068;2023-04-06T06:42:31;18.10;;;9.55;;
58470;SDS011;44258;51.288;12.068;2023-04-06T06:44:58;15.85;;;8.20;;
58470;SDS011;44258;51.288;12.068;2023-04-06T06:47:24;16.25;;;8.38;;
58470;SDS011;44258;51.288;12.068;2023-04-06T06:49:51;20.77;;;8.32;;
58470;SDS011;44258;51.288;12.068;2023-04-06T06:52:20;18.48;;;8.43;;
58470;SDS011;44258;51.288;12.068;2023-04-06T06:54:50;16.08;;;8.43;;
58470;SDS011;44258;51.288;12.068;2023-04-06T06:57:19;16.60;;;7.95;;
58470;SDS011;44258;51.288;12.068;2023-04-06T06:59:46;15.95;;;8.63;;
58470;SDS011;44258;51.288;12.068;2023-04-06T07:02:13;18.25;;;8.20;;
58470;SDS011;44258;51.288;12.068;2023-04-06T07:04:49;15.50;;;7.97;;
58470;SDS011;44258;51.288;12.068;2023-04-06T07:07:16;16.52;;;8.27;;
58470;SDS011;44258;51.288;12.068;2023-04-06T07:10:04;14.05;;;8.02;;
58470;SDS011;44258;51.288;12.068;2023-04-06T07:12:33;14.35;;;8.20;;
58470;SDS011;44258;51.288;12.068;2023-04-06T07:15:00;14.40;;;8.20;;
58470;SDS011;44258;51.288;12.068;2023-04-06T07:17:27;15.25;;;8.00;;
58470;SDS011;44258;51.288;12.068;2023-04-06T07:20:03;15.35;;;7.60;;
58470;SDS011;44258;51.288;12.068;2023-04-06T07:22:30;16.73;;;8.32;;
58470;SDS011;44258;51.288;12.068;2023-04-06T07:24:57;15.05;;;7.55;;
58470;SDS011;44258;51.288;12.068;2023-04-06T07:27:25;13.05;;;7.38;;
58470;SDS011;44258;51.288;12.068;2023-04-06T07:29:55;13.05;;;7.30;;
58470;SDS011;44258;51.288;12.068;2023-04-06T07:32:24;13.73;;;7.72;;
58470;SDS011;44258;51.288;12.068;2023-04-06T07:34:55;14.77;;;7.88;;
58470;SDS011;44258;51.288;12.068;2023-04-06T07:37:25;15.13;;;7.68;;
58470;SDS011;44258;51.288;12.068;2023-04-06T07:39:57;14.90;;;7.65;;
58470;SDS011;44258;51.288;12.068;2023-04-06T07:42:26;15.75;;;7.65;;
58470;SDS011;44258;51.288;12.068;2023-04-06T07:44:52;12.38;;;7.75;;
58470;SDS011;44258;51.288;12.068;2023-04-06T07:47:19;13.65;;;7.25;;
58470;SDS011;44258;51.288;12.068;2023-04-06T07:49:46;13.25;;;7.10;;
58470;SDS011;44258;51.288;12.068;2023-04-06T07:52:12;13.23;;;7.38;;
58470;SDS011;44258;51.288;12.068;2023-04-06T07:54:41;12.15;;;7.30;;
58470;SDS011;44258;51.288;12.068;2023-04-06T07:57:08;13.38;;;7.50;;
58470;SDS011;44258;51.288;12.068;2023-04-06T07:59:35;12.25;;;6.82;;
58470;SDS011;44258;51.288;12.068;2023-04-06T08:02:02;10.70;;;6.55;;
58470;SDS011;44258;51.288;12.068;2023-04-06T08:04:29;13.90;;;7.75;;
58470;SDS011;44258;51.288;12.068;2023-04-06T08:06:57;12.43;;;7.13;;
58470;SDS011;44258;51.288;12.068;2023-04-06T08:09:26;14.77;;;7.03;;
58470;SDS011;44258;51.288;12.068;2023-04-06T08:11:53;12.80;;;7.40;;
58470;SDS011;44258;51.288;12.068;2023-04-06T08:14:22;13.15;;;7.22;;
58470;SDS011;44258;51.288;12.068;2023-04-06T08:16:50;12.30;;;6.40;;
58470;SDS011;44258;51.288;12.068;2023-04-06T08:19:17;12.00;;;6.80;;
58470;SDS011;44258;51.288;12.068;2023-04-06T08:21:48;17.00;;;7.68;;
58470;SDS011;44258;51.288;12.068;2023-04-06T08:24:23;12.80;;;7.65;;
58470;SDS011;44258;51.288;12.068;2023-04-06T08:26:52;13.48;;;6.43;;
58470;SDS011;44258;51.288;12.068;2023-04-06T08:29:22;12.57;;;6.80;;
58470;SDS011;44258;51.288;12.068;2023-04-06T08:31:50;12.45;;;6.93;;
58470;SDS011;44258;51.288;12.068;2023-04-06T08:34:18;14.43;;;7.00;;
58470;SDS011;44258;51.288;12.068;2023-04-06T08:36:45;12.75;;;6.78;;
58470;SDS011;44258;51.288;12.068;2023-04-06T08:39:13;14.18;;;6.93;;
58470;SDS011;44258;51.288;12.068;2023-04-06T08:41:41;13.38;;;7.22;;
58470;SDS011;44258;51.288;12.068;2023-04-06T08:44:10;14.45;;;6.93;;
58470;SDS011;44258;51.288;12.068;2023-04-06T08:46:38;13.18;;;7.05;;
58470;SDS011;44258;51.288;12.068;2023-04-06T08:49:07;13.43;;;7.00;;
58470;SDS011;44258;51.288;12.068;2023-04-06T08:51:34;11.00;;;6.57;;
58470;SDS011;44258;51.288;12.068;2023-04-06T08:54:01;13.15;;;6.70;;
58470;SDS011;44258;51.288;12.068;2023-04-06T08:56:30;12.32;;;6.45;;
58470;SDS011;44258;51.288;12.068;2023-04-06T08:58:57;13.13;;;6.82;;
58470;SDS011;44258;51.288;12.068;2023-04-06T09:01:25;14.13;;;6.57;;
58470;SDS011;44258;51.288;12.068;2023-04-06T09:03:55;12.63;;;6.25;;
58470;SDS011;44258;51.288;12.068;2023-04-06T09:06:28;12.05;;;6.60;;
58470;SDS011;44258;51.288;12.068;2023-04-06T09:08:55;11.55;;;6.53;;
58470;SDS011;44258;51.288;12.068;2023-04-06T09:11:25;12.93;;;6.38;;
58470;SDS011;44258;51.288;12.068;2023-04-06T09:13:52;15.40;;;6.55;;
58470;SDS011;44258;51.288;12.068;2023-04-06T09:16:20;13.30;;;7.13;;
58470;SDS011;44258;51.288;12.068;2023-04-06T09:18:48;15.20;;;6.60;;
58470;SDS011;44258;51.288;12.068;2023-04-06T09:21:17;12.35;;;5.82;;
58470;SDS011;44258;51.288;12.068;2023-04-06T09:23:47;13.50;;;6.03;;
58470;SDS011;44258;51.288;12.068;2023-04-06T09:26:24;12.38;;;6.53;;
58470;SDS011;44258;51.288;12.068;2023-04-06T09:28:53;13.07;;;6.80;;
58470;SDS011;44258;51.288;12.068;2023-04-06T09:31:21;11.32;;;6.38;;
58470;SDS011;44258;51.288;12.068;2023-04-06T09:33:49;13.27;;;6.40;;
58470;SDS011;44258;51.288;12.068;2023-04-06T09:36:17;13.68;;;6.35;;
58470;SDS011;44258;51.288;12.068;2023-04-06T09:38:55;12.43;;;6.85;;
58470;SDS011;44258;51.288;12.068;2023-04-06T09:41:23;12.30;;;6.13;;
58470;SDS011;44258;51.288;12.068;2023-04-06T09:43:50;12.43;;;5.63;;
58470;SDS011;44258;51.288;12.068;2023-04-06T09:46:21;11.85;;;6.18;;
58470;SDS011;44258;51.288;12.068;2023-04-06T09:48:50;11.70;;;5.72;;
58470;SDS011;44258;51.288;12.068;2023-04-06T09:51:17;11.80;;;5.50;;
58470;SDS011;44258;51.288;12.068;2023-04-06T09:53:47;14.35;;;5.97;;
58470;SDS011;44258;51.288;12.068;2023-04-06T09:56:23;11.05;;;5.93;;
58470;SDS011;44258;51.288;12.068;2023-04-06T10:01:28;10.75;;;5.80;;
58470;SDS011;44258;51.288;12.068;2023-04-06T10:04:03;13.25;;;5.82;;
58470;SDS011;44258;51.288;12.068;2023-04-06T10:06:37;12.75;;;6.03;;
58470;SDS011;44258;51.288;12.068;2023-04-06T10:09:06;12.52;;;6.35;;
58470;SDS011;44258;51.288;12.068;2023-04-06T10:11:37;11.23;;;5.30;;
58470;SDS011;44258;51.288;12.068;2023-04-06T10:14:06;10.82;;;5.38;;
58470;SDS011;44258;51.288;12.068;2023-04-06T10:16:33;14.20;;;6.18;;
58470;SDS011;44258;51.288;12.068;2023-04-06T10:19:02;13.18;;;6.05;;
58470;SDS011;44258;51.288;12.068;2023-04-06T10:21:36;13.73;;;5.90;;
58470;SDS011;44258;51.288;12.068;2023-04-06T10:24:06;12.68;;;5.60;;
58470;SDS011;44258;51.288;12.068;2023-04-06T10:26:38;10.93;;;5.47;;
58470;SDS011;44258;51.288;12.068;2023-04-06T10:29:06;12.70;;;5.45;;
58470;SDS011;44258;51.288;12.068;2023-04-06T10:31:32;11.35;;;5.47;;
58470;SDS011;44258;51.288;12.068;2023-04-06T10:33:59;10.93;;;5.35;;
58470;SDS011;44258;51.288;12.068;2023-04-06T10:36:27;11.00;;;5.45;;
58470;SDS011;44258;51.288;12.068;2023-04-06T10:38:58;12.40;;;6.03;;
58470;SDS011;44258;51.288;12.068;2023-04-06T10:41:31;10.50;;;5.20;;
58470;SDS011;44258;51.288;12.068;2023-04-06T10:44:02;12.52;;;6.18;;
58470;SDS011;44258;51.288;12.068;2023-04-06T10:46:30;11.25;;;5.57;;
58470;SDS011;44258;51.288;12.068;2023-04-06T10:48:57;13.48;;;5.88;;
58470;SDS011;44258;51.288;12.068;2023-04-06T10:51:37;11.48;;;5.57;;
58470;SDS011;44258;51.288;12.068;2023-04-06T10:54:04;12.35;;;5.60;;
58470;SDS011;44258;51.288;12.068;2023-04-06T10:56:32;12.52;;;5.72;;
58470;SDS011;44258;51.288;12.068;2023-04-06T10:59:05;9.77;;;5.00;;
58470;SDS011;44258;51.288;12.068;2023-04-06T11:01:31;11.95;;;5.88;;
58470;SDS011;44258;51.288;12.068;2023-04-06T11:03:58;11.35;;;5.43;;
58470;SDS011;44258;51.288;12.068;2023-04-06T11:06:28;9.85;;;5.50;;
58470;SDS011;44258;51.288;12.068;2023-04-06T11:08:57;10.60;;;5.10;;
58470;SDS011;44258;51.288;12.068;2023-04-06T11:11:27;11.60;;;5.20;;
58470;SDS011;44258;51.288;12.068;2023-04-06T11:13:55;10.48;;;5.78;;
58470;SDS011;44258;51.288;12.068;2023-04-06T11:16:24;9.65;;;4.80;;
58470;SDS011;44258;51.288;12.068;2023-04-06T11:18:52;9.55;;;5.28;;
58470;SDS011;44258;51.288;12.068;2023-04-06T11:21:33;12.23;;;5.20;;
58470;SDS011;44258;51.288;12.068;2023-04-06T11:24:09;9.48;;;4.70;;
58470;SDS011;44258;51.288;12.068;2023-04-06T11:26:40;10.27;;;5.45;;
58470;SDS011;44258;51.288;12.068;2023-04-06T11:29:09;13.48;;;5.22;;
58470;SDS011;44258;51.288;12.068;2023-04-06T11:31:41;9.35;;;5.13;;
58470;SDS011;44258;51.288;12.068;2023-04-06T11:34:09;12.30;;;5.25;;
58470;SDS011;44258;51.288;12.068;2023-04-06T11:36:39;10.77;;;5.47;;
58470;SDS011;44258;51.288;12.068;2023-04-06T11:39:06;11.23;;;5.28;;
58470;SDS011;44258;51.288;12.068;2023-04-06T11:41:33;11.88;;;5.90;;
58470;SDS011;44258;51.288;12.068;2023-04-06T11:44:01;10.93;;;5.65;;
58470;SDS011;44258;51.288;12.068;2023-04-06T11:46:27;13.73;;;5.45;;
58470;SDS011;44258;51.288;12.068;2023-04-06T11:49:00;10.80;;;5.07;;
58470;SDS011;44258;51.288;12.068;2023-04-06T11:51:28;9.10;;;4.65;;
58470;SDS011;44258;51.288;12.068;2023-04-06T11:53:56;9.88;;;4.90;;
58470;SDS011;44258;51.288;12.068;2023-04-06T11:56:23;9.10;;;4.90;;
58470;SDS011;44258;51.288;12.068;2023-04-06T11:58:51;9.98;;;4.82;;
58470;SDS011;44258;51.288;12.068;2023-04-06T12:01:17;9.80;;;4.80;;
58470;SDS011;44258;51.288;12.068;2023-04-06T12:03:47;10.70;;;5.20;;
58470;SDS011;44258;51.288;12.068;2023-04-06T12:06:15;9.65;;;5.00;;
58470;SDS011;44258;51.288;12.068;2023-04-06T12:08:43;10.00;;;5.40;;
58470;SDS011;44258;51.288;12.068;2023-04-06T12:11:09;10.15;;;5.70;;
58470;SDS011;44258;51.288;12.068;2023-04-06T12:13:36;9.63;;;5.47;;
58470;SDS011;44258;51.288;12.068;2023-04-06T12:16:03;9.18;;;5.35;;
58470;SDS011;44258;51.288;12.068;2023-04-06T12:18:30;11.68;;;5.68;;
58470;SDS011;44258;51.288;12.068;2023-04-06T12:20:57;9.95;;;5.38;;
58470;SDS011;44258;51.288;12.068;2023-04-06T12:23:25;10.40;;;5.40;;
58470;SDS011;44258;51.288;12.068;2023-04-06T12:25:51;11.43;;;6.07;;
58470;SDS011;44258;51.288;12.068;2023-04-06T12:28:21;10.85;;;6.22;;
58470;SDS011;44258;51.288;12.068;2023-04-06T12:30:52;10.05;;;5.30;;
58470;SDS011;44258;51.288;12.068;2023-04-06T12:33:18;11.82;;;5.60;;
58470;SDS011;44258;51.288;12.068;2023-04-06T12:35:45;11.57;;;5.65;;
58470;SDS011;44258;51.288;12.068;2023-04-06T12:38:12;10.02;;;5.65;;
58470;SDS011;44258;51.288;12.068;2023-04-06T12:40:40;9.23;;;5.47;;
58470;SDS011;44258;51.288;12.068;2023-04-06T12:43:06;10.27;;;5.28;;
58470;SDS011;44258;51.288;12.068;2023-04-06T12:45:33;9.57;;;5.35;;
58470;SDS011;44258;51.288;12.068;2023-04-06T12:48:00;12.07;;;5.35;;
58470;SDS011;44258;51.288;12.068;2023-04-06T12:50:29;10.63;;;6.00;;
58470;SDS011;44258;51.288;12.068;2023-04-06T12:52:56;11.20;;;5.88;;
58470;SDS011;44258;51.288;12.068;2023-04-06T12:55:23;10.75;;;5.60;;
58470;SDS011;44258;51.288;12.068;2023-04-06T12:57:53;14.77;;;6.00;;
58470;SDS011;44258;51.288;12.068;2023-04-06T13:00:23;10.38;;;5.80;;
58470;SDS011;44258;51.288;12.068;2023-04-06T13:02:52;10.95;;;5.70;;
58470;SDS011;44258;51.288;12.068;2023-04-06T13:05:19;10.23;;;5.32;;
58470;SDS011;44258;51.288;12.068;2023-04-06T13:07:46;11.48;;;5.75;;
58470;SDS011;44258;51.288;12.068;2023-04-06T13:10:12;10.75;;;5.65;;
58470;SDS011;44258;51.288;12.068;2023-04-06T13:12:39;9.90;;;5.65;;
58470;SDS011;44258;51.288;12.068;2023-04-06T13:15:08;12.68;;;6.32;;
58470;SDS011;44258;51.288;12.068;2023-04-06T13:17:38;10.50;;;5.50;;
58470;SDS011;44258;51.288;12.068;2023-04-06T13:20:05;12.73;;;5.97;;
58470;SDS011;44258;51.288;12.068;2023-04-06T13:22:32;10.23;;;5.90;;
58470;SDS011;44258;51.288;12.068;2023-04-06T13:24:59;12.32;;;5.82;;
58470;SDS011;44258;51.288;12.068;2023-04-06T13:27:25;10.50;;;6.13;;
58470;SDS011;44258;51.288;12.068;2023-04-06T13:29:53;10.60;;;6.07;;
58470;SDS011;44258;51.288;12.068;2023-04-06T13:32:21;11.57;;;6.32;;
58470;SDS011;44258;51.288;12.068;2023-04-06T13:34:48;13.48;;;6.25;;
58470;SDS011;44258;51.288;12.068;2023-04-06T13:37:18;11.60;;;6.38;;
58470;SDS011;44258;51.288;12.068;2023-04-06T13:39:47;11.70;;;5.05;;
58470;SDS011;44258;51.288;12.068;2023-04-06T13:42:13;10.45;;;5.95;;
58470;SDS011;44258;51.288;12.068;2023-04-06T13:44:41;11.05;;;5.93;;
58470;SDS011;44258;51.288;12.068;2023-04-06T13:47:10;9.75;;;5.40;;
58470;SDS011;44258;51.288;12.068;2023-04-06T13:49:38;12.68;;;5.53;;
58470;SDS011;44258;51.288;12.068;2023-04-06T13:52:08;9.93;;;5.85;;
58470;SDS011;44258;51.288;12.068;2023-04-06T13:54:35;10.15;;;5.43;;
58470;SDS011;44258;51.288;12.068;2023-04-06T13:57:02;10.55;;;5.70;;
58470;SDS011;44258;51.288;12.068;2023-04-06T13:59:31;10.98;;;6.00;;
58470;SDS011;44258;51.288;12.068;2023-04-06T14:02:00;11.32;;;5.78;;
58470;SDS011;44258;51.288;12.068;2023-04-06T14:04:26;9.82;;;5.43;;
58470;SDS011;44258;51.288;12.068;2023-04-06T14:06:57;9.43;;;5.32;;
58470;SDS011;44258;51.288;12.068;2023-04-06T14:09:24;10.95;;;5.15;;
58470;SDS011;44258;51.288;12.068;2023-04-06T14:11:53;10.82;;;5.55;;
58470;SDS011;44258;51.288;12.068;2023-04-06T14:14:23;9.98;;;6.18;;
58470;SDS011;44258;51.288;12.068;2023-04-06T14:16:50;11.63;;;5.82;;
58470;SDS011;44258;51.288;12.068;2023-04-06T14:19:17;9.20;;;5.47;;
58470;SDS011;44258;51.288;12.068;2023-04-06T14:21:49;12.18;;;4.93;;
58470;SDS011;44258;51.288;12.068;2023-04-06T14:24:20;11.82;;;5.90;;
58470;SDS011;44258;51.288;12.068;2023-04-06T14:26:47;11.27;;;5.50;;
58470;SDS011;44258;51.288;12.068;2023-04-06T14:29:14;11.85;;;5.47;;
58470;SDS011;44258;51.288;12.068;2023-04-06T14:31:41;10.70;;;5.18;;